sensor_id;sensor_type;location;lat;lon;timestamp;pressure;altitude;pressure_sealevel;temperature;humidity
11525;BME280;5819;49.648;8.330;2023-05-01T00:02:24;100432.03;;;12.09;93.82
11525;BME280;5819;49.648;8.330;2023-05-01T00:04:52;100426.19;;;12.04;94.78
11525;BME280;5819;49.648;8.330;2023-05-01T00:07:20;100430.06;;;12.14;93.97
11525;BME280;5819;49.648;8.330;2023-05-01T00:09:49;100413.31;;;12.01;94.25
11525;BME280;5819;49.648;8.330;2023-05-01T00:12:17;100418.09;;;11.92;95.57
11525;BME280;5819;49.648;8.330;2023-05-01T00:14:45;100416.28;;;11.94;94.26
11525;BME280;5819;49.648;8.330;2023-05-01T00:17:14;100414.75;;;11.90;95.70
11525;BME280;5819;49.648;8.330;2023-05-01T00:19:43;100403.75;;;11.83;95.41
11525;BME280;5819;49.648;8.330;2023-05-01T00:22:12;100400.44;;;11.80;95.57
11525;BME280;5819;49.648;8.330;2023-05-01T00:24:40;100403.56;;;11.67;96.34
11525;BME280;5819;49.648;8.330;2023-05-01T00:27:08;100401.19;;;11.63;96.63
11525;BME280;5819;49.648;8.330;2023-05-01T00:29:36;100402.66;;;11.68;95.22
11525;BME280;5819;49.648;8.330;2023-05-01T00:32:04;100396.94;;;11.60;97.47
11525;BME280;5819;49.648;8.330;2023-05-01T00:34:33;100388.22;;;11.61;97.57
11525;BME280;5819;49.648;8.330;2023-05-01T00:37:01;100396.34;;;11.55;97.04
11525;BME280;5819;49.648;8.330;2023-05-01T00:39:29;100388.44;;;11.57;95.29
11525;BME280;5819;49.648;8.330;2023-05-01T00:41:58;100391.41;;;11.49;96.23
11525;BME280;5819;49.648;8.330;2023-05-01T00:44:25;100389.06;;;11.62;96.06
11525;BME280;5819;49.648;8.330;2023-05-01T00:46:53;100380.22;;;11.66;94.04
11525;BME280;5819;49.648;8.330;2023-05-01T00:49:22;100381.75;;;11.70;93.51
11525;BME280;5819;49.648;8.330;2023-05-01T00:51:52;100372.44;;;11.64;92.87
11525;BME280;5819;49.648;8.330;2023-05-01T00:54:21;100377.59;;;11.66;92.37
11525;BME280;5819;49.648;8.330;2023-05-01T00:56:51;100368.44;;;11.76;91.79
11525;BME280;5819;49.648;8.330;2023-05-01T00:59:20;100372.91;;;11.55;92.07
11525;BME280;5819;49.648;8.330;2023-05-01T01:01:52;100364.59;;;11.47;94.23
11525;BME280;5819;49.648;8.330;2023-05-01T01:04:22;100364.66;;;11.46;93.17
11525;BME280;5819;49.648;8.330;2023-05-01T01:06:59;100363.78;;;11.45;93.29
11525;BME280;5819;49.648;8.330;2023-05-01T01:09:36;100360.34;;;11.45;94.12
11525;BME280;5819;49.648;8.330;2023-05-01T01:12:13;100358.59;;;11.45;94.08
11525;BME280;5819;49.648;8.330;2023-05-01T01:14:47;100351.63;;;11.46;93.38
11525;BME280;5819;49.648;8.330;2023-05-01T01:17:22;100351.97;;;11.38;93.67
11525;BME280;5819;49.648;8.330;2023-05-01T01:20:09;100352.44;;;11.27;95.73
11525;BME280;5819;49.648;8.330;2023-05-01T01:22:46;100340.97;;;11.32;94.72
11525;BME280;5819;49.648;8.330;2023-05-01T01:28:51;100342.25;;;11.42;92.52
11525;BME280;5819;49.648;8.330;2023-05-01T01:31:31;100338.66;;;11.25;94.18
11525;BME280;5819;49.648;8.330;2023-05-01T01:34:08;100348.72;;;11.33;92.14
11525;BME280;5819;49.648;8.330;2023-05-01T01:36:42;100340.63;;;11.20;91.94
11525;BME280;5819;49.648;8.330;2023-05-01T01:39:28;100339.34;;;11.10;94.46
11525;BME280;5819;49.648;8.330;2023-05-01T01:41:57;100340.63;;;11.20;93.53
11525;BME280;5819;49.648;8.330;2023-05-01T01:44:31;100337.13;;;11.21;92.96
11525;BME280;5819;49.648;8.330;2023-05-01T01:47:05;100345.78;;;11.22;93.76
11525;BME280;5819;49.648;8.330;2023-05-01T01:49:38;100337.72;;;11.08;91.54
11525;BME280;5819;49.648;8.330;2023-05-01T01:52:09;100338.56;;;11.08;90.59
11525;BME280;5819;49.648;8.330;2023-05-01T01:54:42;100337.22;;;11.00;91.86
11525;BME280;5819;49.648;8.330;2023-05-01T01:57:13;100333.66;;;11.02;90.85
11525;BME280;5819;49.648;8.330;2023-05-01T01:59:43;100337.16;;;11.01;90.47
11525;BME280;5819;49.648;8.330;2023-05-01T02:02:15;100332.84;;;11.00;90.04
11525;BME280;5819;49.648;8.330;2023-05-01T02:04:47;100334.69;;;10.98;89.93
11525;BME280;5819;49.648;8.330;2023-05-01T02:07:16;100338.41;;;10.93;89.90
11525;BME280;5819;49.648;8.330;2023-05-01T02:09:45;100332.16;;;10.97;90.35
11525;BME280;5819;49.648;8.330;2023-05-01T02:12:15;100335.28;;;10.85;91.28
11525;BME280;5819;49.648;8.330;2023-05-01T02:14:44;100339.19;;;10.95;92.93
11525;BME280;5819;49.648;8.330;2023-05-01T02:17:14;100333.44;;;11.07;91.98
11525;BME280;5819;49.648;8.330;2023-05-01T02:19:45;100335.75;;;11.13;90.70
11525;BME280;5819;49.648;8.330;2023-05-01T02:22:15;100340.41;;;11.06;92.42
11525;BME280;5819;49.648;8.330;2023-05-01T02:24:45;100338.41;;;11.11;92.04
11525;BME280;5819;49.648;8.330;2023-05-01T02:27:15;100334.91;;;11.12;90.73
11525;BME280;5819;49.648;8.330;2023-05-01T02:29:45;100336.25;;;11.21;89.40
11525;BME280;5819;49.648;8.330;2023-05-01T02:32:13;100330.22;;;11.20;89.59
11525;BME280;5819;49.648;8.330;2023-05-01T02:34:41;100327.69;;;11.19;90.12
11525;BME280;5819;49.648;8.330;2023-05-01T02:37:10;100334.84;;;11.14;91.94
11525;BME280;5819;49.648;8.330;2023-05-01T02:39:40;100332.81;;;11.20;90.58
11525;BME280;5819;49.648;8.330;2023-05-01T02:42:10;100333.59;;;11.22;89.09
11525;BME280;5819;49.648;8.330;2023-05-01T02:44:45;100326.56;;;11.24;87.18
11525;BME280;5819;49.648;8.330;2023-05-01T02:47:17;100328.03;;;11.30;87.73
11525;BME280;5819;49.648;8.330;2023-05-01T02:49:46;100321.19;;;11.27;89.37
11525;BME280;5819;49.648;8.330;2023-05-01T02:52:18;100324.44;;;11.33;87.54
11525;BME280;5819;49.648;8.330;2023-05-01T02:54:50;100323.78;;;11.27;87.64
11525;BME280;5819;49.648;8.330;2023-05-01T02:57:18;100323.94;;;11.24;87.82
11525;BME280;5819;49.648;8.330;2023-05-01T02:59:46;100316.78;;;11.11;88.23
11525;BME280;5819;49.648;8.330;2023-05-01T03:02:14;100320.16;;;11.13;88.17
11525;BME280;5819;49.648;8.330;2023-05-01T03:04:42;100308.72;;;11.15;88.37
11525;BME280;5819;49.648;8.330;2023-05-01T03:07:10;100309.66;;;11.14;87.49
11525;BME280;5819;49.648;8.330;2023-05-01T03:09:39;100313.69;;;11.21;88.53
11525;BME280;5819;49.648;8.330;2023-05-01T03:12:08;100314.72;;;11.17;88.53
11525;BME280;5819;49.648;8.330;2023-05-01T03:14:36;100307.78;;;11.18;88.60
11525;BME280;5819;49.648;8.330;2023-05-01T03:17:05;100306.72;;;11.22;88.43
11525;BME280;5819;49.648;8.330;2023-05-01T03:19:33;100314.22;;;11.09;88.22
11525;BME280;5819;49.648;8.330;2023-05-01T03:22:02;100308.03;;;11.12;88.82
11525;BME280;5819;49.648;8.330;2023-05-01T03:24:30;100307.41;;;11.07;89.00
11525;BME280;5819;49.648;8.330;2023-05-01T03:26:59;100303.38;;;11.00;89.15
11525;BME280;5819;49.648;8.330;2023-05-01T03:29:27;100305.28;;;10.96;89.65
11525;BME280;5819;49.648;8.330;2023-05-01T03:31:56;100300.28;;;10.92;89.76
11525;BME280;5819;49.648;8.330;2023-05-01T03:34:24;100300.38;;;10.90;90.06
11525;BME280;5819;49.648;8.330;2023-05-01T03:36:54;100297.09;;;10.85;89.87
11525;BME280;5819;49.648;8.330;2023-05-01T03:39:24;100292.06;;;10.82;90.18
11525;BME280;5819;49.648;8.330;2023-05-01T03:42:19;100299.38;;;10.93;89.79
11525;BME280;5819;49.648;8.330;2023-05-01T03:44:49;100302.88;;;10.92;90.10
11525;BME280;5819;49.648;8.330;2023-05-01T03:47:17;100297.97;;;10.86;90.52
11525;BME280;5819;49.648;8.330;2023-05-01T03:49:46;100300.63;;;10.84;90.59
11525;BME280;5819;49.648;8.330;2023-05-01T03:52:14;100293.66;;;10.85;91.35
11525;BME280;5819;49.648;8.330;2023-05-01T03:54:42;100292.75;;;10.86;91.87
11525;BME280;5819;49.648;8.330;2023-05-01T03:57:26;100292.59;;;10.89;91.65
11525;BME280;5819;49.648;8.330;2023-05-01T03:59:53;100292.59;;;10.89;91.09
11525;BME280;5819;49.648;8.330;2023-05-01T04:02:22;100289.34;;;10.84;91.35
11525;BME280;5819;49.648;8.330;2023-05-01T04:04:50;100289.44;;;10.82;91.55
11525;BME280;5819;49.648;8.330;2023-05-01T04:07:18;100291.75;;;10.88;91.79
11525;BME280;5819;49.648;8.330;2023-05-01T04:09:48;100293.63;;;11.05;91.22
11525;BME280;5819;49.648;8.330;2023-05-01T04:12:16;100296.75;;;10.93;90.97
11525;BME280;5819;49.648;8.330;2023-05-01T04:14:45;100287.19;;;10.93;91.28
11525;BME280;5819;49.648;8.330;2023-05-01T04:17:14;100291.56;;;10.93;91.87
11525;BME280;5819;49.648;8.330;2023-05-01T04:19:42;100292.69;;;10.87;92.08
11525;BME280;5819;49.648;8.330;2023-05-01T04:22:10;100296.25;;;10.85;92.19
11525;BME280;5819;49.648;8.330;2023-05-01T04:24:39;100287.25;;;10.92;92.64
11525;BME280;5819;49.648;8.330;2023-05-01T04:27:07;100291.75;;;10.88;93.96
11525;BME280;5819;49.648;8.330;2023-05-01T04:29:35;100293.81;;;11.00;92.55
11525;BME280;5819;49.648;8.330;2023-05-01T04:32:05;100295.16;;;10.90;93.25
11525;BME280;5819;49.648;8.330;2023-05-01T04:34:33;100292.91;;;10.83;93.18
11525;BME280;5819;49.648;8.330;2023-05-01T04:37:02;100288.41;;;10.86;92.72
11525;BME280;5819;49.648;8.330;2023-05-01T04:39:32;100297.09;;;10.85;93.15
11525;BME280;5819;49.648;8.330;2023-05-01T04:42:02;100290.44;;;10.98;94.05
11525;BME280;5819;49.648;8.330;2023-05-01T04:44:30;100288.09;;;10.92;93.33
11525;BME280;5819;49.648;8.330;2023-05-01T04:47:00;100291.97;;;10.84;93.29
11525;BME280;5819;49.648;8.330;2023-05-01T04:49:30;100294.09;;;10.94;93.26
11525;BME280;5819;49.648;8.330;2023-05-01T04:51:58;100290.22;;;10.84;93.23
11525;BME280;5819;49.648;8.330;2023-05-01T04:54:34;100296.06;;;10.89;93.37
11525;BME280;5819;49.648;8.330;2023-05-01T04:57:01;100297.81;;;10.89;93.40
11525;BME280;5819;49.648;8.330;2023-05-01T04:59:30;100301.97;;;10.93;94.92
11525;BME280;5819;49.648;8.330;2023-05-01T05:01:59;100296.75;;;10.93;95.10
11525;BME280;5819;49.648;8.330;2023-05-01T05:04:27;100290.38;;;11.00;94.42
11525;BME280;5819;49.648;8.330;2023-05-01T05:06:56;100298.25;;;10.98;94.01
11525;BME280;5819;49.648;8.330;2023-05-01T05:09:35;100292.34;;;10.95;92.56
11525;BME280;5819;49.648;8.330;2023-05-01T05:12:03;100293.31;;;10.92;94.32
11525;BME280;5819;49.648;8.330;2023-05-01T05:14:32;100300.06;;;10.96;94.54
11525;BME280;5819;49.648;8.330;2023-05-01T05:17:00;100302.75;;;10.95;94.06
11525;BME280;5819;49.648;8.330;2023-05-01T05:19:29;100291.34;;;10.97;94.02
11525;BME280;5819;49.648;8.330;2023-05-01T05:21:58;100297.56;;;11.13;94.09
11525;BME280;5819;49.648;8.330;2023-05-01T05:24:31;100295.59;;;11.18;92.92
11525;BME280;5819;49.648;8.330;2023-05-01T05:26:59;100297.34;;;11.18;92.87
11525;BME280;5819;49.648;8.330;2023-05-01T05:29:27;100292.91;;;11.20;92.70
11525;BME280;5819;49.648;8.330;2023-05-01T05:31:55;100297.63;;;11.31;93.15
11525;BME280;5819;49.648;8.330;2023-05-01T05:34:25;100297.75;;;11.27;92.98
11525;BME280;5819;49.648;8.330;2023-05-01T05:36:53;100299.59;;;11.25;95.95
11525;BME280;5819;49.648;8.330;2023-05-01T05:39:24;100292.44;;;11.31;94.77
11525;BME280;5819;49.648;8.330;2023-05-01T05:41:53;100291.50;;;11.32;94.74
11525;BME280;5819;49.648;8.330;2023-05-01T05:44:21;100281.03;;;11.33;94.55
11525;BME280;5819;49.648;8.330;2023-05-01T05:46:49;100285.22;;;11.54;92.69
11525;BME280;5819;49.648;8.330;2023-05-01T05:49:26;100289.06;;;11.47;94.16
11525;BME280;5819;49.648;8.330;2023-05-01T05:51:54;100290.66;;;11.50;94.23
11525;BME280;5819;49.648;8.330;2023-05-01T05:54:24;100289.06;;;11.64;92.11
11525;BME280;5819;49.648;8.330;2023-05-01T05:56:52;100277.81;;;11.64;93.26
11525;BME280;5819;49.648;8.330;2023-05-01T05:59:20;100284.72;;;11.65;91.87
11525;BME280;5819;49.648;8.330;2023-05-01T06:01:48;100283.09;;;11.62;91.19
11525;BME280;5819;49.648;8.330;2023-05-01T06:04:16;100280.16;;;11.51;93.51
11525;BME280;5819;49.648;8.330;2023-05-01T06:06:44;100287.91;;;11.53;92.86
11525;BME280;5819;49.648;8.330;2023-05-01T06:09:12;100289.53;;;11.55;93.17
11525;BME280;5819;49.648;8.330;2023-05-01T06:11:44;100282.59;;;11.73;92.78
11525;BME280;5819;49.648;8.330;2023-05-01T06:14:12;100269.00;;;11.85;91.42
11525;BME280;5819;49.648;8.330;2023-05-01T06:16:40;100268.50;;;11.77;92.17
11525;BME280;5819;49.648;8.330;2023-05-01T06:19:08;100271.16;;;11.94;91.25
11525;BME280;5819;49.648;8.330;2023-05-01T06:21:38;100267.75;;;11.92;93.16
11525;BME280;5819;49.648;8.330;2023-05-01T06:24:09;100263.50;;;11.91;92.69
11525;BME280;5819;49.648;8.330;2023-05-01T06:26:49;100262.06;;;11.84;93.08
11525;BME280;5819;49.648;8.330;2023-05-01T06:29:17;100269.06;;;11.84;93.65
11525;BME280;5819;49.648;8.330;2023-05-01T06:31:45;100263.50;;;11.91;93.16
11525;BME280;5819;49.648;8.330;2023-05-01T06:34:13;100260.19;;;12.05;91.27
11525;BME280;5819;49.648;8.330;2023-05-01T06:36:51;100263.19;;;12.14;91.65
11525;BME280;5819;49.648;8.330;2023-05-01T06:39:19;100259.34;;;12.22;90.30
11525;BME280;5819;49.648;8.330;2023-05-01T06:41:49;100264.72;;;12.18;91.17
11525;BME280;5819;49.648;8.330;2023-05-01T06:44:28;100264.63;;;12.20;91.39
11525;BME280;5819;49.648;8.330;2023-05-01T06:47:00;100266.03;;;12.27;92.03
11525;BME280;5819;49.648;8.330;2023-05-01T06:49:28;100261.16;;;12.37;90.11
11525;BME280;5819;49.648;8.330;2023-05-01T06:51:55;100257.81;;;12.35;90.46
11525;BME280;5819;49.648;8.330;2023-05-01T06:54:24;100259.22;;;12.40;90.36
11525;BME280;5819;49.648;8.330;2023-05-01T06:56:54;100255.75;;;12.57;89.38
11525;BME280;5819;49.648;8.330;2023-05-01T06:59:22;100259.88;;;12.78;88.90
11525;BME280;5819;49.648;8.330;2023-05-01T07:01:51;100254.41;;;12.83;88.60
11525;BME280;5819;49.648;8.330;2023-05-01T07:04:19;100251.13;;;12.95;87.40
11525;BME280;5819;49.648;8.330;2023-05-01T07:06:55;100251.00;;;13.13;86.86
11525;BME280;5819;49.648;8.330;2023-05-01T07:09:26;100256.41;;;13.10;87.61
11525;BME280;5819;49.648;8.330;2023-05-01T07:11:58;100261.66;;;13.09;85.61
11525;BME280;5819;49.648;8.330;2023-05-01T07:14:27;100258.84;;;13.29;83.34
11525;BME280;5819;49.648;8.330;2023-05-01T07:16:54;100253.03;;;13.24;84.62
11525;BME280;5819;49.648;8.330;2023-05-01T07:19:22;100256.75;;;13.36;85.44
11525;BME280;5819;49.648;8.330;2023-05-01T07:21:50;100248.66;;;13.56;87.80
11525;BME280;5819;49.648;8.330;2023-05-01T07:24:18;100256.13;;;13.62;86.41
11525;BME280;5819;49.648;8.330;2023-05-01T07:26:46;100256.88;;;13.64;84.76
11525;BME280;5819;49.648;8.330;2023-05-01T07:29:17;100257.81;;;13.63;85.53
11525;BME280;5819;49.648;8.330;2023-05-01T07:31:45;100264.72;;;13.64;83.38
11525;BME280;5819;49.648;8.330;2023-05-01T07:34:13;100255.38;;;13.60;85.23
11525;BME280;5819;49.648;8.330;2023-05-01T07:36:42;100252.50;;;13.49;83.70
11525;BME280;5819;49.648;8.330;2023-05-01T07:39:10;100249.81;;;13.66;85.76
11525;BME280;5819;49.648;8.330;2023-05-01T07:41:39;100259.59;;;13.63;85.00
11525;BME280;5819;49.648;8.330;2023-05-01T07:44:06;100254.84;;;13.69;85.44
11525;BME280;5819;49.648;8.330;2023-05-01T07:46:36;100257.28;;;13.72;84.35
11525;BME280;5819;49.648;8.330;2023-05-01T07:49:04;100262.81;;;13.68;86.00
11525;BME280;5819;49.648;8.330;2023-05-01T07:51:32;100246.34;;;13.66;84.98
11525;BME280;5819;49.648;8.330;2023-05-01T07:53:59;100248.19;;;13.79;86.41
11525;BME280;5819;49.648;8.330;2023-05-01T07:56:31;100241.41;;;13.91;86.41
11525;BME280;5819;49.648;8.330;2023-05-01T07:58:59;100242.28;;;14.05;84.38
11525;BME280;5819;49.648;8.330;2023-05-01T08:01:26;100235.19;;;14.07;84.20
11525;BME280;5819;49.648;8.330;2023-05-01T08:03:56;100235.94;;;14.10;84.53
11525;BME280;5819;49.648;8.330;2023-05-01T08:06:24;100236.75;;;13.96;85.09
11525;BME280;5819;49.648;8.330;2023-05-01T08:08:53;100235.09;;;14.09;84.73
11525;BME280;5819;49.648;8.330;2023-05-01T08:11:21;100237.94;;;14.20;82.75
11525;BME280;5819;49.648;8.330;2023-05-01T08:13:50;100236.44;;;14.16;83.74
11525;BME280;5819;49.648;8.330;2023-05-01T08:16:17;100251.50;;;14.27;84.57
11525;BME280;5819;49.648;8.330;2023-05-01T08:18:47;100246.44;;;14.24;82.56
11525;BME280;5819;49.648;8.330;2023-05-01T08:21:17;100246.41;;;14.39;84.10
11525;BME280;5819;49.648;8.330;2023-05-01T08:23:45;100252.69;;;14.51;84.58
11525;BME280;5819;49.648;8.330;2023-05-01T08:26:13;100246.16;;;14.72;81.03
11525;BME280;5819;49.648;8.330;2023-05-01T08:28:42;100242.94;;;14.81;79.36
11525;BME280;5819;49.648;8.330;2023-05-01T08:31:09;100242.88;;;14.83;77.26
11525;BME280;5819;49.648;8.330;2023-05-01T08:33:37;100237.47;;;15.27;77.53
11525;BME280;5819;49.648;8.330;2023-05-01T08:36:08;100227.03;;;15.39;75.90
11525;BME280;5819;49.648;8.330;2023-05-01T08:38:38;100234.78;;;15.41;75.10
11525;BME280;5819;49.648;8.330;2023-05-01T08:41:07;100234.00;;;15.26;76.55
11525;BME280;5819;49.648;8.330;2023-05-01T08:43:35;100239.28;;;15.12;76.08
11525;BME280;5819;49.648;8.330;2023-05-01T08:46:05;100237.03;;;15.20;76.02
11525;BME280;5819;49.648;8.330;2023-05-01T08:48:39;100228.19;;;15.35;75.63
11525;BME280;5819;49.648;8.330;2023-05-01T08:51:09;100225.16;;;15.56;74.60
11525;BME280;5819;49.648;8.330;2023-05-01T08:53:39;100213.00;;;15.67;72.74
11525;BME280;5819;49.648;8.330;2023-05-01T08:56:09;100224.59;;;15.90;72.14
11525;BME280;5819;49.648;8.330;2023-05-01T08:58:40;100222.72;;;15.92;76.24
11525;BME280;5819;49.648;8.330;2023-05-01T09:01:12;100221.66;;;15.82;72.72
11525;BME280;5819;49.648;8.330;2023-05-01T09:03:42;100211.75;;;16.12;70.64
11525;BME280;5819;49.648;8.330;2023-05-01T09:06:12;100220.88;;;16.19;71.53
11525;BME280;5819;49.648;8.330;2023-05-01T09:08:42;100208.16;;;16.26;67.00
11525;BME280;5819;49.648;8.330;2023-05-01T09:11:10;100210.16;;;16.10;69.63
11525;BME280;5819;49.648;8.330;2023-05-01T09:13:38;100206.28;;;16.41;71.14
11525;BME280;5819;49.648;8.330;2023-05-01T09:16:07;100206.69;;;16.22;71.38
11525;BME280;5819;49.648;8.330;2023-05-01T09:18:35;100204.84;;;16.36;69.18
11525;BME280;5819;49.648;8.330;2023-05-01T09:21:04;100218.16;;;16.08;64.55
11525;BME280;5819;49.648;8.330;2023-05-01T09:23:34;100214.66;;;16.33;69.80
11525;BME280;5819;49.648;8.330;2023-05-01T09:26:05;100202.72;;;16.67;69.38
11525;BME280;5819;49.648;8.330;2023-05-01T09:28:41;100200.19;;;16.65;63.81
11525;BME280;5819;49.648;8.330;2023-05-01T09:31:23;100197.56;;;16.78;66.10
11525;BME280;5819;49.648;8.330;2023-05-01T09:33:56;100194.50;;;16.84;65.73
11525;BME280;5819;49.648;8.330;2023-05-01T09:36:25;100189.19;;;16.73;66.19
11525;BME280;5819;49.648;8.330;2023-05-01T09:38:55;100191.25;;;16.80;70.26
11525;BME280;5819;49.648;8.330;2023-05-01T09:41:25;100188.63;;;17.17;68.80
11525;BME280;5819;49.648;8.330;2023-05-01T09:43:53;100188.69;;;17.04;65.14
11525;BME280;5819;49.648;8.330;2023-05-01T09:46:22;100191.13;;;17.18;66.99
11525;BME280;5819;49.648;8.330;2023-05-01T09:48:54;100184.88;;;17.08;64.39
11525;BME280;5819;49.648;8.330;2023-05-01T09:51:24;100192.19;;;16.79;62.85
11525;BME280;5819;49.648;8.330;2023-05-01T09:53:54;100180.63;;;17.42;62.88
11525;BME280;5819;49.648;8.330;2023-05-01T09:56:22;100177.06;;;18.13;62.96
11525;BME280;5819;49.648;8.330;2023-05-01T09:58:53;100178.84;;;18.01;60.92
11525;BME280;5819;49.648;8.330;2023-05-01T10:01:36;100172.34;;;18.74;64.30
11525;BME280;5819;49.648;8.330;2023-05-01T10:04:06;100173.63;;;18.79;61.12
11525;BME280;5819;49.648;8.330;2023-05-01T10:06:34;100164.63;;;18.82;59.23
11525;BME280;5819;49.648;8.330;2023-05-01T10:09:03;100164.13;;;19.10;63.92
11525;BME280;5819;49.648;8.330;2023-05-01T10:11:46;100160.44;;;18.90;58.40
11525;BME280;5819;49.648;8.330;2023-05-01T10:14:16;100163.31;;;19.09;59.43
11525;BME280;5819;49.648;8.330;2023-05-01T10:16:46;100159.25;;;18.83;60.22
11525;BME280;5819;49.648;8.330;2023-05-01T10:19:16;100166.28;;;19.16;62.56
11525;BME280;5819;49.648;8.330;2023-05-01T10:21:44;100155.00;;;19.57;61.64
11525;BME280;5819;49.648;8.330;2023-05-01T10:24:12;100148.84;;;18.70;56.45
11525;BME280;5819;49.648;8.330;2023-05-01T10:26:42;100156.50;;;18.96;57.87
11525;BME280;5819;49.648;8.330;2023-05-01T10:29:11;100163.81;;;18.92;59.25
11525;BME280;5819;49.648;8.330;2023-05-01T10:31:40;100172.31;;;18.85;60.72
11525;BME280;5819;49.648;8.330;2023-05-01T10:34:09;100161.25;;;19.56;59.12
11525;BME280;5819;49.648;8.330;2023-05-01T10:36:41;100154.38;;;19.65;57.54
11525;BME280;5819;49.648;8.330;2023-05-01T10:39:28;100160.91;;;19.70;60.81
11525;BME280;5819;49.648;8.330;2023-05-01T10:42:00;100161.44;;;19.64;56.05
11525;BME280;5819;49.648;8.330;2023-05-01T10:44:29;100173.28;;;19.38;58.45
11525;BME280;5819;49.648;8.330;2023-05-01T10:46:58;100171.06;;;19.54;58.17
11525;BME280;5819;49.648;8.330;2023-05-01T10:52:27;100153.78;;;20.02;59.12
11525;BME280;5819;49.648;8.330;2023-05-01T10:57:57;100136.41;;;19.79;58.65
11525;BME280;5819;49.648;8.330;2023-05-01T11:00:25;100134.41;;;20.13;59.17
11525;BME280;5819;49.648;8.330;2023-05-01T11:03:35;100124.19;;;20.60;56.21
11525;BME280;5819;49.648;8.330;2023-05-01T11:06:04;100114.56;;;20.59;53.47
11525;BME280;5819;49.648;8.330;2023-05-01T11:08:34;100133.56;;;20.43;58.13
11525;BME280;5819;49.648;8.330;2023-05-01T11:14:10;100123.81;;;20.74;55.44
11525;BME280;5819;49.648;8.330;2023-05-01T11:16:44;100124.38;;;20.77;54.11
11525;BME280;5819;49.648;8.330;2023-05-01T11:19:46;100120.75;;;20.78;54.74
11525;BME280;5819;49.648;8.330;2023-05-01T11:22:15;100102.59;;;21.42;53.11
11525;BME280;5819;49.648;8.330;2023-05-01T11:24:44;100105.25;;;21.42;55.51
11525;BME280;5819;49.648;8.330;2023-05-01T11:27:14;100109.59;;;21.53;52.04
11525;BME280;5819;49.648;8.330;2023-05-01T11:29:44;100111.25;;;21.16;54.68
11525;BME280;5819;49.648;8.330;2023-05-01T11:32:21;100104.31;;;20.75;51.80
11525;BME280;5819;49.648;8.330;2023-05-01T11:34:52;100108.28;;;21.67;52.72
11525;BME280;5819;49.648;8.330;2023-05-01T11:37:38;100105.13;;;21.34;54.75
11525;BME280;5819;49.648;8.330;2023-05-01T11:40:18;100095.06;;;21.09;53.54
11525;BME280;5819;49.648;8.330;2023-05-01T11:42:47;100099.28;;;21.40;54.38
11525;BME280;5819;49.648;8.330;2023-05-01T11:45:15;100093.00;;;21.41;54.27
11525;BME280;5819;49.648;8.330;2023-05-01T11:47:44;100095.50;;;21.24;54.39
11525;BME280;5819;49.648;8.330;2023-05-01T11:50:13;100092.59;;;21.46;53.18
11525;BME280;5819;49.648;8.330;2023-05-01T11:52:43;100093.22;;;20.90;53.06
11525;BME280;5819;49.648;8.330;2023-05-01T11:55:12;100092.31;;;21.49;54.10
11525;BME280;5819;49.648;8.330;2023-05-01T11:57:47;100086.03;;;21.40;52.97
11525;BME280;5819;49.648;8.330;2023-05-01T12:00:25;100090.38;;;21.41;54.61
11525;BME280;5819;49.648;8.330;2023-05-01T12:02:58;100095.19;;;20.88;54.65
11525;BME280;5819;49.648;8.330;2023-05-01T12:05:28;100105.28;;;21.14;57.22
11525;BME280;5819;49.648;8.330;2023-05-01T12:08:05;100096.06;;;21.27;53.79
11525;BME280;5819;49.648;8.330;2023-05-01T12:10:36;100080.88;;;21.39;51.84
11525;BME280;5819;49.648;8.330;2023-05-01T12:13:06;100083.31;;;21.88;51.75
11525;BME280;5819;49.648;8.330;2023-05-01T12:15:36;100086.03;;;22.16;56.13
11525;BME280;5819;49.648;8.330;2023-05-01T12:18:04;100073.25;;;22.38;52.35
11525;BME280;5819;49.648;8.330;2023-05-01T12:20:35;100081.25;;;22.29;54.38
11525;BME280;5819;49.648;8.330;2023-05-01T12:23:04;100087.47;;;22.10;54.14
11525;BME280;5819;49.648;8.330;2023-05-01T12:25:33;100084.91;;;21.53;51.91
11525;BME280;5819;49.648;8.330;2023-05-01T12:28:02;100083.97;;;21.34;53.37
11525;BME280;5819;49.648;8.330;2023-05-01T12:30:30;100089.00;;;21.18;54.68
11525;BME280;5819;49.648;8.330;2023-05-01T12:32:59;100076.59;;;20.50;51.40
11525;BME280;5819;49.648;8.330;2023-05-01T12:35:36;100091.88;;;20.16;53.67
11525;BME280;5819;49.648;8.330;2023-05-01T12:38:12;100093.22;;;19.80;53.28
11525;BME280;5819;49.648;8.330;2023-05-01T12:40:49;100088.81;;;19.90;51.59
11525;BME280;5819;49.648;8.330;2023-05-01T12:43:18;100085.78;;;20.25;52.40
11525;BME280;5819;49.648;8.330;2023-05-01T12:45:50;100080.28;;;21.07;51.65
11525;BME280;5819;49.648;8.330;2023-05-01T12:48:19;100085.22;;;21.30;52.31
11525;BME280;5819;49.648;8.330;2023-05-01T12:50:48;100079.59;;;21.72;54.40
11525;BME280;5819;49.648;8.330;2023-05-01T12:53:20;100073.34;;;21.44;49.78
11525;BME280;5819;49.648;8.330;2023-05-01T12:55:50;100072.09;;;21.58;55.32
11525;BME280;5819;49.648;8.330;2023-05-01T12:58:18;100065.94;;;21.67;51.61
11525;BME280;5819;49.648;8.330;2023-05-01T13:00:47;100069.00;;;20.95;50.66
11525;BME280;5819;49.648;8.330;2023-05-01T13:03:22;100075.81;;;20.88;52.76
11525;BME280;5819;49.648;8.330;2023-05-01T13:05:54;100076.50;;;20.80;51.51
11525;BME280;5819;49.648;8.330;2023-05-01T13:08:28;100091.56;;;20.09;52.25
11525;BME280;5819;49.648;8.330;2023-05-01T13:10:58;100093.97;;;19.71;55.31
11525;BME280;5819;49.648;8.330;2023-05-01T13:13:32;100094.97;;;19.49;54.98
11525;BME280;5819;49.648;8.330;2023-05-01T13:16:06;100094.06;;;19.28;56.45
11525;BME280;5819;49.648;8.330;2023-05-01T13:18:42;100087.94;;;19.59;55.36
11525;BME280;5819;49.648;8.330;2023-05-01T13:21:14;100092.47;;;19.78;57.57
11525;BME280;5819;49.648;8.330;2023-05-01T13:23:51;100085.41;;;19.79;55.43
11525;BME280;5819;49.648;8.330;2023-05-01T13:26:24;100090.88;;;19.66;54.01
11525;BME280;5819;49.648;8.330;2023-05-01T13:28:54;100079.34;;;19.88;54.66
11525;BME280;5819;49.648;8.330;2023-05-01T13:31:22;100071.59;;;20.57;50.99